• Join FlightAware (Why Join?)
  • Login
  • US Flag 
09:43PM EST


 

Airport Tracker/Info


-or-


 

Live Flight TrackerFlight Track Log ✈ WEW1540 ✈ 07-May-2013 ✈ CYYN - CYQR

Flight Track Log - Related Links

Times and Time Zones

All times are in EDT time to prevent confusion due to time zone crossing. See the WEW1540 flight status page for this flight to view local times or setup timezone preferences in your user account.

Time Position Orientation Groundspeed Altitude Reporting Facility
EDT Latitude Longitude Course Direction KTS MPH feet Rate Location/Type
08:07PM 50.3000 -107.4167 86° East 150 173 9,100  Level Winnipeg Center
08:08PM 50.3333 -107.3500 52° Northeast 170 196 9,100  Level Winnipeg Center
08:09PM 50.3333 -107.2667 90° East 180 207 9,100  Level Winnipeg Center
08:10PM 50.3263 -107.1256 85° East  Level FlightAware Approximate
08:10PM 50.3333 -107.1833 90° East 190 219 9,100  Level Winnipeg Center
08:11PM 50.3298 -107.0543 86° East  Level FlightAware Approximate
08:11PM 50.3167 -107.1000 107° East 190 219 9,100  Level Winnipeg Center
08:12PM 50.3333 -106.9830 86° East  Level FlightAware Approximate
08:12PM 50.3500 -107.0333 52° Northeast 190 219 9,100  Level Winnipeg Center
08:13PM 50.3333 -106.9500 107° East 190 219 9,100  Level Winnipeg Center
08:14PM 50.3333 -106.8667 90° East 190 219 9,100  Level Winnipeg Center
08:15PM 50.3500 -106.8000 69° East 190 219 9,100  Level Winnipeg Center
08:16PM 50.3333 -106.6833 103° East 190 219 9,100  Level Winnipeg Center
08:17PM 50.3500 -106.6000 73° East 190 219 9,100  Level Winnipeg Center
08:19PM 50.3500 -106.4500 90° East 190 219 9,100  Level Winnipeg Center
08:20PM 50.3667 -106.3667 73° East 190 219 9,100  Level Winnipeg Center
08:21PM 50.3500 -106.3000 111° Southeast 190 219 9,100  Level Winnipeg Center
08:22PM 50.3667 -106.2167 73° East 190 219 9,100  Level Winnipeg Center
08:23PM 50.3667 -106.1167 90° East 190 219 9,200  Climbing Winnipeg Center
08:24PM 50.3833 -106.0333 73° East 190 219 9,100 -60 Descending Winnipeg Center
08:25PM 50.3833 -105.9500 90° East 190 219 9,100  Level Winnipeg Center
08:26PM 50.3667 -105.8667 107° East 190 219 9,100  Level Winnipeg Center
08:27PM 50.3833 -105.8000 69° East 190 219 9,100  Level Winnipeg Center
08:28PM 50.3833 -105.7167 90° East 190 219 9,100 -300 Level Winnipeg Center
08:29PM 50.3833 -105.6167 90° East 190 219 8,600 -540 Descending Winnipeg Center
08:30PM 50.3833 -105.5333 90° East 200 230 8,100 -480 Descending Winnipeg Center
08:31PM 50.3833 -105.4500 90° East 190 219 7,700 -480 Descending Winnipeg Center
08:32PM 50.4000 -105.3833 69° East 190 219 7,200 -600 Descending Winnipeg Center
08:33PM 50.4000 -105.3000 90° East 180 207 6,500 -660 Descending Winnipeg Center
08:34PM 50.4000 -105.2167 90° East 190 219 5,900 -540 Descending Winnipeg Center
08:35PM 50.4000 -105.1333 90° East 180 207 5,500 -540 Descending Winnipeg Center
08:36PM 50.4000 -105.0667 90° East 170 196 4,900 -600 Descending Winnipeg Center
08:37PM 50.3833 -104.9833 107° East 170 196 4,400 -600 Descending Winnipeg Center
08:38PM 50.3833 -104.9000 90° East 170 196 3,800 -600 Descending Winnipeg Center
08:39PM 50.3833 -104.8500 90° East 160 184 3,300 -360 Descending Winnipeg Center
08:40PM 50.3667 -104.7667 107° East 150 173 3,100 -240 Descending Winnipeg Center
08:41PM 50.3667 -104.7167 90° East 130 150 2,900 -180 Descending Winnipeg Center
08:42PM 50.3500 -104.6667 118° Southeast 120 138 2,800 -240 Descending Winnipeg Center
08:43PM 50.3833 -104.6333 33° Northeast 110 127 2,500 -360 Descending Winnipeg Center
08:44PM 50.4000 -104.6667 308° West 110 127 2,100 -300 Descending Winnipeg Center
08:45PM 50.4000 -104.6667 308° West 90 104 1,900 -240 Descending Winnipeg Center